createdAt,value
2023-01-29T00:02:17.983Z,-1.42
2023-01-29T00:04:44.688Z,-1.37
2023-01-29T00:07:11.429Z,-1.37
2023-01-29T00:09:38.090Z,-1.40
2023-01-29T00:12:04.803Z,-1.44
2023-01-29T00:14:31.475Z,-1.40
2023-01-29T00:16:58.178Z,-1.55
2023-01-29T00:19:25.985Z,-1.61
2023-01-29T00:21:52.663Z,-1.42
2023-01-29T00:24:22.074Z,-1.44
2023-01-29T00:26:48.747Z,-1.53
2023-01-29T00:29:15.491Z,-1.51
2023-01-29T00:31:45.429Z,-1.54
2023-01-29T00:34:12.109Z,-1.47
2023-01-29T00:36:38.886Z,-1.57
2023-01-29T00:39:05.564Z,-1.57
2023-01-29T00:41:33.937Z,-1.64
2023-01-29T00:44:01.948Z,-1.57
2023-01-29T00:46:28.608Z,-1.56
2023-01-29T00:48:55.285Z,-1.54
2023-01-29T00:51:21.958Z,-1.65
2023-01-29T00:53:51.707Z,-1.70
2023-01-29T00:56:18.350Z,-1.60
2023-01-29T00:58:45.009Z,-1.53
2023-01-29T01:01:11.698Z,-1.43
2023-01-29T01:03:38.361Z,-1.52
2023-01-29T01:06:06.913Z,-1.55
2023-01-29T01:08:33.635Z,-1.50
2023-01-29T01:11:06.346Z,-1.53
2023-01-29T01:13:34.535Z,-1.49
2023-01-29T01:16:01.323Z,-1.52
2023-01-29T01:18:31.458Z,-1.53
2023-01-29T01:20:58.701Z,-1.51
2023-01-29T01:23:25.908Z,-1.49
2023-01-29T01:25:52.556Z,-1.53
2023-01-29T01:28:19.160Z,-1.52
2023-01-29T01:30:46.044Z,-1.39
2023-01-29T01:33:13.021Z,-1.48
2023-01-29T01:35:40.238Z,-1.40
2023-01-29T01:38:06.875Z,-1.45
2023-01-29T01:40:33.538Z,-1.48
2023-01-29T01:43:01.466Z,-1.42
2023-01-29T01:45:34.231Z,-1.37
2023-01-29T01:48:13.658Z,-1.46
2023-01-29T01:50:46.530Z,-1.53
2023-01-29T01:53:20.319Z,-1.59
2023-01-29T01:56:02.157Z,-1.53
2023-01-29T01:58:36.993Z,-1.48
2023-01-29T02:01:09.226Z,-1.58
2023-01-29T02:03:43.731Z,-1.50
2023-01-29T02:06:11.367Z,-1.42
2023-01-29T02:09:05.836Z,-1.54
2023-01-29T02:11:32.617Z,-1.55
2023-01-29T02:13:59.637Z,-1.42
2023-01-29T02:16:26.315Z,-1.46
2023-01-29T02:18:53.332Z,-1.36
2023-01-29T02:21:52.255Z,-1.44
2023-01-29T02:24:56.366Z,-1.39
2023-01-29T02:28:11.012Z,-1.33
2023-01-29T02:30:50.543Z,-1.45
2023-01-29T02:33:31.528Z,-1.32
2023-01-29T02:36:13.244Z,-1.15
2023-01-29T02:39:00.687Z,-1.17
2023-01-29T02:42:00.950Z,-1.21
2023-01-29T02:44:27.524Z,-1.31
2023-01-29T02:47:28.889Z,-1.18
2023-01-29T02:50:25.689Z,-1.27
2023-01-29T02:52:59.788Z,-1.26
2023-01-29T02:56:07.458Z,-1.03
2023-01-29T02:58:44.100Z,-1.13
2023-01-29T03:01:37.128Z,-0.87
2023-01-29T03:04:18.827Z,-0.95
2023-01-29T03:06:54.797Z,-1.06
2023-01-29T03:09:36.510Z,-0.89
2023-01-29T03:12:26.116Z,-0.90
2023-01-29T03:14:52.874Z,-0.90
2023-01-29T03:17:26.957Z,-1.04
2023-01-29T03:19:54.433Z,-1.08
2023-01-29T03:22:22.517Z,-1.04
2023-01-29T03:25:02.930Z,-0.81
2023-01-29T03:27:57.399Z,-0.91
2023-01-29T03:30:28.692Z,-0.85
2023-01-29T03:32:59.165Z,-0.86
2023-01-29T03:35:31.107Z,-0.80
2023-01-29T03:37:57.825Z,-0.84
2023-01-29T03:40:25.428Z,-0.83
2023-01-29T03:43:16.443Z,-0.86
2023-01-29T03:46:00.660Z,-0.79
2023-01-29T03:48:42.714Z,-0.88
2023-01-29T03:51:30.063Z,-0.84
2023-01-29T03:54:18.616Z,-0.70
2023-01-29T03:57:10.796Z,-0.50
2023-01-29T03:59:55.369Z,-0.73
2023-01-29T04:02:30.059Z,-0.73
2023-01-29T04:05:05.608Z,-0.62
2023-01-29T04:07:35.221Z,-0.74
2023-01-29T04:10:16.833Z,-0.73
2023-01-29T04:13:00.917Z,-0.66
2023-01-29T04:15:34.057Z,-0.87
2023-01-29T04:18:02.046Z,-0.82
2023-01-29T04:20:29.232Z,-0.49
2023-01-29T04:22:55.874Z,-0.19
2023-01-29T04:25:27.242Z,-0.41
2023-01-29T04:27:56.727Z,-0.53
2023-01-29T04:30:39.058Z,-0.60
2023-01-29T04:33:29.856Z,-0.44
2023-01-29T04:36:05.252Z,-0.44
2023-01-29T04:38:31.934Z,-0.58
2023-01-29T04:41:11.995Z,-0.69
2023-01-29T04:44:01.472Z,-0.73
2023-01-29T04:47:07.164Z,-0.92
2023-01-29T04:49:36.440Z,-0.70
2023-01-29T04:52:17.751Z,-0.81
2023-01-29T04:54:54.211Z,-0.64
2023-01-29T04:57:25.744Z,-0.74
2023-01-29T05:00:10.087Z,-0.75
2023-01-29T05:02:39.958Z,-0.93
2023-01-29T05:05:09.895Z,-0.90
2023-01-29T05:07:40.500Z,-0.94
2023-01-29T05:10:12.192Z,-0.78
2023-01-29T05:12:43.254Z,-0.86
2023-01-29T05:15:17.842Z,-0.88
2023-01-29T05:17:44.503Z,-1.06
2023-01-29T05:20:12.448Z,-1.04
2023-01-29T05:22:42.002Z,-0.82
2023-01-29T05:25:35.036Z,-0.60
2023-01-29T05:28:01.738Z,-0.44
2023-01-29T05:30:28.375Z,-0.79
2023-01-29T05:32:55.073Z,-0.67
2023-01-29T05:35:21.712Z,-0.82
2023-01-29T05:37:48.384Z,-0.92
2023-01-29T05:40:15.640Z,-0.51
2023-01-29T05:42:42.447Z,-0.85
2023-01-29T05:45:09.549Z,-0.60
2023-01-29T05:47:36.202Z,-0.77
2023-01-29T05:50:02.964Z,-0.71
2023-01-29T05:52:29.580Z,-0.72
2023-01-29T05:54:56.185Z,-0.48
2023-01-29T05:57:22.835Z,-0.74
2023-01-29T05:59:49.484Z,-0.75
2023-01-29T06:02:16.095Z,-0.65
2023-01-29T06:04:42.781Z,-0.76
2023-01-29T06:07:09.405Z,-0.90
2023-01-29T06:09:36.117Z,-0.81
2023-01-29T06:12:03.624Z,-0.48
2023-01-29T06:14:30.292Z,-0.97
2023-01-29T06:16:56.928Z,-0.83
2023-01-29T06:19:23.579Z,-1.03
2023-01-29T06:21:50.225Z,-0.77
2023-01-29T06:24:16.888Z,-0.46
2023-01-29T06:26:43.617Z,-0.33
2023-01-29T06:29:10.264Z,-0.56
2023-01-29T06:31:39.114Z,-0.74
2023-01-29T06:34:08.115Z,-0.18
2023-01-29T06:36:35.144Z,-0.55
2023-01-29T06:39:01.902Z,-0.30
2023-01-29T06:41:28.641Z,-0.01
2023-01-29T06:43:55.287Z,-0.57
2023-01-29T06:46:21.915Z,-0.41
2023-01-29T06:48:49.176Z,-0.19
2023-01-29T06:51:15.800Z,-0.40
2023-01-29T06:53:46.449Z,-0.15
2023-01-29T06:56:13.621Z,-0.10
2023-01-29T06:58:40.260Z,-0.34
2023-01-29T07:01:09.924Z,-0.42
2023-01-29T07:03:37.124Z,-0.34
2023-01-29T07:06:05.397Z,-0.43
2023-01-29T07:08:36.846Z,-0.42
2023-01-29T07:11:04.356Z,-0.32
2023-01-29T07:13:31.045Z,-0.31
2023-01-29T07:16:02.197Z,0.27
2023-01-29T07:18:29.625Z,0.00
2023-01-29T07:20:56.985Z,-0.28
2023-01-29T07:23:24.428Z,0.09
2023-01-29T07:25:51.629Z,0.26
2023-01-29T07:28:19.729Z,-0.08
2023-01-29T07:30:46.597Z,-0.15
2023-01-29T07:33:13.226Z,0.56
2023-01-29T07:35:42.323Z,0.43
2023-01-29T07:38:11.434Z,0.30
2023-01-29T07:40:38.131Z,0.33
2023-01-29T07:43:07.486Z,0.65
2023-01-29T07:45:36.574Z,0.50
2023-01-29T07:48:04.379Z,0.25
2023-01-29T07:50:32.023Z,0.36
2023-01-29T07:52:58.864Z,-0.26
2023-01-29T07:55:25.559Z,-0.12
2023-01-29T07:57:59.751Z,-0.03
2023-01-29T08:00:27.399Z,0.14
2023-01-29T08:02:54.207Z,0.10
2023-01-29T08:05:20.872Z,0.62
2023-01-29T08:08:05.756Z,0.74
2023-01-29T08:10:34.082Z,0.35
2023-01-29T08:13:02.195Z,0.60
2023-01-29T08:15:30.060Z,0.14
2023-01-29T08:17:58.255Z,0.56
2023-01-29T08:20:43.788Z,1.58
2023-01-29T08:23:14.937Z,1.83
2023-01-29T08:25:42.228Z,2.13
2023-01-29T08:28:08.987Z,2.80
2023-01-29T08:30:37.790Z,2.66
2023-01-29T08:33:04.638Z,2.27
2023-01-29T08:35:31.483Z,2.73
2023-01-29T08:38:01.040Z,2.15
2023-01-29T08:40:30.296Z,3.01
2023-01-29T08:43:02.938Z,3.31
2023-01-29T08:45:34.558Z,3.76
2023-01-29T08:48:02.212Z,3.73
2023-01-29T08:50:28.925Z,2.56
2023-01-29T08:52:59.845Z,3.65
2023-01-29T08:55:27.940Z,3.65
2023-01-29T08:57:55.502Z,3.98
2023-01-29T09:00:22.219Z,4.03
2023-01-29T09:02:49.069Z,3.15
2023-01-29T09:05:16.056Z,3.56
2023-01-29T09:07:42.923Z,2.94
2023-01-29T09:10:10.336Z,3.75
2023-01-29T09:12:36.988Z,4.02
2023-01-29T09:15:04.080Z,3.97
2023-01-29T09:17:30.773Z,3.82
2023-01-29T09:19:57.689Z,3.59
2023-01-29T09:22:24.409Z,3.81
2023-01-29T09:24:51.023Z,4.03
2023-01-29T09:27:17.731Z,4.25
2023-01-29T09:29:44.385Z,4.02
2023-01-29T09:32:11.021Z,3.66
2023-01-29T09:34:37.721Z,3.98
2023-01-29T09:37:04.510Z,3.79
2023-01-29T09:39:31.137Z,4.13
2023-01-29T09:42:11.035Z,4.14
2023-01-29T09:45:06.675Z,3.68
2023-01-29T09:47:35.918Z,4.26
2023-01-29T09:50:06.695Z,3.88
2023-01-29T09:52:46.749Z,4.15
2023-01-29T09:55:19.548Z,4.28
2023-01-29T09:57:48.304Z,4.71
2023-01-29T10:00:42.845Z,4.40
2023-01-29T10:03:25.284Z,4.38
2023-01-29T10:05:57.841Z,3.89
2023-01-29T10:09:05.078Z,3.46
2023-01-29T10:12:10.274Z,3.45
2023-01-29T10:15:11.895Z,3.81
2023-01-29T10:17:38.477Z,3.88
2023-01-29T10:20:36.246Z,3.55
2023-01-29T10:23:02.922Z,3.98
2023-01-29T10:25:36.770Z,3.19
2023-01-29T10:28:03.510Z,3.99
2023-01-29T10:30:46.284Z,4.47
2023-01-29T10:33:21.949Z,4.63
2023-01-29T10:35:56.921Z,3.70
2023-01-29T10:38:39.982Z,3.66
2023-01-29T10:41:30.693Z,3.86
2023-01-29T10:44:12.614Z,3.67
2023-01-29T10:46:51.520Z,4.08
2023-01-29T10:50:06.197Z,4.60
2023-01-29T10:53:10.958Z,4.62
2023-01-29T10:55:53.581Z,4.43
2023-01-29T10:58:38.787Z,4.28
2023-01-29T11:01:05.442Z,3.66
2023-01-29T11:03:33.887Z,3.64
2023-01-29T11:06:17.315Z,4.02
2023-01-29T11:08:51.652Z,4.38
2023-01-29T11:11:21.580Z,3.86
2023-01-29T11:13:59.529Z,4.13
2023-01-29T11:16:30.385Z,4.24
2023-01-29T11:18:59.543Z,4.60
2023-01-29T11:21:29.703Z,4.66
2023-01-29T11:24:14.939Z,4.47
2023-01-29T11:26:44.034Z,4.33
2023-01-29T11:29:32.096Z,4.02
2023-01-29T11:32:03.094Z,4.40
2023-01-29T11:34:29.770Z,4.58
2023-01-29T11:37:16.720Z,4.49
2023-01-29T11:39:45.793Z,4.46
2023-01-29T11:42:21.251Z,4.08
2023-01-29T11:44:48.543Z,4.02
2023-01-29T11:47:30.340Z,3.90
2023-01-29T11:50:02.725Z,4.10
2023-01-29T11:52:40.497Z,3.74
2023-01-29T11:55:17.617Z,4.44
2023-01-29T11:57:51.168Z,3.65
2023-01-29T12:00:24.913Z,4.16
2023-01-29T12:03:01.040Z,3.67
2023-01-29T12:05:28.355Z,4.35
2023-01-29T12:07:58.661Z,4.84
2023-01-29T12:10:33.078Z,3.79
2023-01-29T12:13:26.401Z,4.39
2023-01-29T12:16:10.103Z,4.84
2023-01-29T12:18:46.625Z,3.92
2023-01-29T12:21:56.057Z,4.46
2023-01-29T12:24:34.241Z,4.65
2023-01-29T12:27:25.277Z,4.84
2023-01-29T12:30:17.538Z,4.87
2023-01-29T12:32:52.870Z,5.01
2023-01-29T12:35:28.363Z,5.02
2023-01-29T12:37:59.589Z,3.75
2023-01-29T12:40:43.007Z,3.65
2023-01-29T12:43:16.515Z,4.51
2023-01-29T12:45:47.955Z,4.84
2023-01-29T12:48:21.743Z,4.87
2023-01-29T12:50:55.532Z,5.34
2023-01-29T12:53:34.871Z,4.78
2023-01-29T12:56:42.746Z,4.15
2023-01-29T12:59:15.048Z,4.45
2023-01-29T13:01:57.765Z,5.30
2023-01-29T13:04:52.070Z,4.64
2023-01-29T13:07:28.217Z,5.43
2023-01-29T13:10:07.533Z,5.69
2023-01-29T13:12:38.261Z,4.73
2023-01-29T13:15:22.308Z,4.46
2023-01-29T13:17:58.287Z,4.40
2023-01-29T13:20:37.447Z,4.70
2023-01-29T13:23:22.726Z,5.14
2023-01-29T13:25:54.237Z,4.76
2023-01-29T13:28:25.591Z,4.82
2023-01-29T13:31:10.805Z,4.41
2023-01-29T13:33:40.881Z,4.27
2023-01-29T13:36:18.484Z,4.26
2023-01-29T13:38:45.345Z,4.29
2023-01-29T13:41:14.685Z,4.80
2023-01-29T13:43:48.841Z,3.98
2023-01-29T13:46:19.140Z,4.16
2023-01-29T13:48:50.326Z,4.60
2023-01-29T13:51:22.764Z,4.92
2023-01-29T13:54:03.171Z,4.42
2023-01-29T13:56:29.792Z,4.72
2023-01-29T13:58:57.691Z,4.51
2023-01-29T14:01:49.485Z,4.77
2023-01-29T14:04:19.032Z,5.04
2023-01-29T14:06:49.468Z,5.17
2023-01-29T14:09:32.465Z,4.89
2023-01-29T14:11:59.934Z,5.04
2023-01-29T14:14:56.751Z,5.46
2023-01-29T14:17:27.169Z,5.20
2023-01-29T14:20:06.659Z,5.00
2023-01-29T14:22:34.771Z,4.72
2023-01-29T14:25:05.124Z,5.18
2023-01-29T14:27:33.732Z,4.84
2023-01-29T14:30:09.641Z,4.69
2023-01-29T14:32:40.345Z,5.22
2023-01-29T14:35:25.226Z,5.03
2023-01-29T14:37:57.652Z,5.03
2023-01-29T14:40:28.920Z,4.90
2023-01-29T14:42:58.558Z,4.74
2023-01-29T14:45:28.088Z,4.16
2023-01-29T14:47:56.156Z,3.76
2023-01-29T14:50:28.746Z,3.39
2023-01-29T14:53:13.851Z,3.43
2023-01-29T14:55:42.839Z,3.01
2023-01-29T14:58:41.985Z,2.48
2023-01-29T15:01:25.614Z,2.17
2023-01-29T15:04:14.503Z,2.63
2023-01-29T15:06:52.401Z,2.25
2023-01-29T15:09:37.034Z,2.82
2023-01-29T15:12:06.873Z,2.97
2023-01-29T15:14:41.838Z,2.83
2023-01-29T15:17:52.730Z,2.94
2023-01-29T15:20:31.285Z,3.63
2023-01-29T15:22:58.461Z,4.25
2023-01-29T15:25:28.027Z,4.52
2023-01-29T15:27:58.339Z,4.20
2023-01-29T15:30:32.885Z,4.89
2023-01-29T15:33:00.937Z,4.83
2023-01-29T15:35:39.547Z,4.55
2023-01-29T15:38:18.991Z,4.79
2023-01-29T15:40:57.468Z,4.85
2023-01-29T15:43:27.912Z,5.29
2023-01-29T15:46:06.951Z,5.29
2023-01-29T15:48:42.226Z,5.01
2023-01-29T15:51:16.724Z,4.19
2023-01-29T15:54:03.916Z,4.61
2023-01-29T15:56:40.371Z,4.68
2023-01-29T15:59:19.358Z,4.45
2023-01-29T16:01:46.205Z,4.61
2023-01-29T16:04:20.886Z,3.69
2023-01-29T16:06:49.887Z,4.28
2023-01-29T16:09:21.794Z,4.11
2023-01-29T16:11:50.190Z,4.33
2023-01-29T16:14:23.019Z,4.58
2023-01-29T16:16:49.725Z,4.18
2023-01-29T16:19:22.750Z,3.78
2023-01-29T16:21:58.719Z,2.54
2023-01-29T16:24:26.874Z,2.38
2023-01-29T16:27:04.433Z,2.26
2023-01-29T16:29:35.495Z,3.11
2023-01-29T16:32:04.084Z,3.85
2023-01-29T16:34:42.775Z,3.86
2023-01-29T16:37:33.485Z,4.03
2023-01-29T16:40:00.171Z,4.07
2023-01-29T16:42:29.109Z,4.33
2023-01-29T16:45:01.655Z,4.48
2023-01-29T16:47:32.375Z,4.67
2023-01-29T16:50:17.859Z,4.72
2023-01-29T16:53:12.337Z,4.73
2023-01-29T16:55:45.172Z,4.87
2023-01-29T16:58:38.119Z,4.75
2023-01-29T17:01:11.272Z,4.72
2023-01-29T17:03:41.031Z,4.87
2023-01-29T17:06:13.077Z,4.84
2023-01-29T17:08:43.502Z,4.83
2023-01-29T17:11:22.869Z,4.90
2023-01-29T17:13:49.641Z,4.67
2023-01-29T17:16:22.431Z,4.63
2023-01-29T17:18:49.326Z,4.75
2023-01-29T17:21:16.088Z,4.60
2023-01-29T17:23:43.324Z,4.17
2023-01-29T17:26:13.492Z,4.15
2023-01-29T17:28:41.734Z,4.26
2023-01-29T17:31:09.862Z,4.25
2023-01-29T17:33:42.823Z,4.19
2023-01-29T17:36:15.205Z,4.16
2023-01-29T17:38:42.830Z,3.34
2023-01-29T17:41:24.536Z,3.64
2023-01-29T17:43:51.181Z,3.43
2023-01-29T17:46:19.326Z,3.59
2023-01-29T17:48:47.066Z,3.39
2023-01-29T17:51:16.662Z,2.55
2023-01-29T17:53:46.075Z,2.96
2023-01-29T17:56:24.707Z,3.20
2023-01-29T17:58:51.329Z,2.83
2023-01-29T18:01:17.987Z,2.13
2023-01-29T18:03:44.748Z,2.45
2023-01-29T18:06:23.370Z,2.47
2023-01-29T18:08:49.993Z,2.03
2023-01-29T18:11:16.721Z,2.22
2023-01-29T18:13:43.506Z,2.00
2023-01-29T18:16:10.305Z,2.64
2023-01-29T18:18:36.987Z,2.89
2023-01-29T18:21:04.381Z,2.32
2023-01-29T18:23:31.048Z,2.26
2023-01-29T18:25:57.801Z,2.27
2023-01-29T18:28:24.920Z,2.45
2023-01-29T18:30:52.771Z,2.39
2023-01-29T18:33:19.600Z,2.40
2023-01-29T18:35:47.837Z,2.14
2023-01-29T18:38:14.702Z,1.50
2023-01-29T18:40:41.484Z,1.38
2023-01-29T18:43:09.783Z,1.20
2023-01-29T18:45:36.574Z,0.81
2023-01-29T18:48:03.401Z,0.54
2023-01-29T18:50:30.124Z,0.66
2023-01-29T18:52:59.722Z,0.63
2023-01-29T18:55:27.906Z,0.59
2023-01-29T18:58:28.591Z,1.20
2023-01-29T19:00:42.305Z,1.38
2023-01-29T19:03:11.251Z,1.10
2023-01-29T19:05:39.803Z,0.88
2023-01-29T19:08:06.748Z,0.20
2023-01-29T19:10:34.060Z,0.02
2023-01-29T19:13:01.340Z,0.17
2023-01-29T19:15:29.158Z,0.82
2023-01-29T19:17:56.679Z,0.33
2023-01-29T19:20:23.932Z,0.88
2023-01-29T19:22:50.633Z,1.21
2023-01-29T19:25:19.849Z,1.04
2023-01-29T19:27:46.952Z,1.28
2023-01-29T19:30:16.696Z,1.50
2023-01-29T19:32:43.438Z,1.09
2023-01-29T19:35:10.362Z,0.89
2023-01-29T19:37:37.227Z,1.28
2023-01-29T19:40:04.608Z,0.69
2023-01-29T19:42:31.269Z,0.59
2023-01-29T19:44:57.939Z,0.98
2023-01-29T19:47:24.638Z,0.76
2023-01-29T19:49:51.583Z,0.63
2023-01-29T19:52:18.356Z,0.52
2023-01-29T19:54:45.047Z,0.21
2023-01-29T19:57:11.739Z,0.78
2023-01-29T19:59:38.417Z,0.60
2023-01-29T20:02:09.278Z,0.90
2023-01-29T20:04:35.925Z,1.07
2023-01-29T20:07:02.589Z,1.36
2023-01-29T20:09:29.304Z,1.22
2023-01-29T20:11:55.969Z,1.00
2023-01-29T20:14:22.657Z,0.57
2023-01-29T20:16:49.260Z,0.76
2023-01-29T20:19:15.922Z,0.84
2023-01-29T20:21:45.947Z,0.08
2023-01-29T20:24:13.358Z,0.61
2023-01-29T20:26:40.284Z,0.94
2023-01-29T20:29:06.941Z,-0.14
2023-01-29T20:31:33.695Z,0.04
2023-01-29T20:34:00.492Z,0.55
2023-01-29T20:36:27.216Z,-0.13
2023-01-29T20:38:53.825Z,-0.09
2023-01-29T20:41:20.516Z,0.21
2023-01-29T20:43:47.427Z,0.89
2023-01-29T20:46:14.325Z,1.17
2023-01-29T20:48:41.022Z,0.89
2023-01-29T20:51:14.809Z,0.92
2023-01-29T20:53:42.451Z,1.12
2023-01-29T20:56:10.149Z,1.17
2023-01-29T20:58:38.489Z,0.59
2023-01-29T21:01:10.117Z,0.86
2023-01-29T21:03:37.886Z,0.80
2023-01-29T21:06:05.095Z,1.09
2023-01-29T21:08:31.752Z,0.55
2023-01-29T21:10:58.477Z,1.11
2023-01-29T21:13:25.142Z,0.61
2023-01-29T21:15:51.946Z,1.22
2023-01-29T21:18:18.589Z,1.34
2023-01-29T21:20:45.722Z,1.18
2023-01-29T21:23:12.348Z,0.76
2023-01-29T21:25:38.972Z,0.68
2023-01-29T21:28:06.028Z,1.02
2023-01-29T21:30:32.946Z,0.83
2023-01-29T21:33:00.166Z,0.90
2023-01-29T21:35:26.764Z,1.12
2023-01-29T21:37:53.403Z,0.89
2023-01-29T21:40:20.346Z,-0.20
2023-01-29T21:42:47.887Z,0.34
2023-01-29T21:45:14.890Z,0.12
2023-01-29T21:47:42.763Z,0.28
2023-01-29T21:50:13.268Z,0.19
2023-01-29T21:52:39.971Z,0.29
2023-01-29T21:55:06.959Z,-0.09
2023-01-29T21:57:33.597Z,0.32
2023-01-29T22:00:00.304Z,-0.15
2023-01-29T22:02:27.476Z,0.45
2023-01-29T22:04:54.802Z,0.65
2023-01-29T22:07:22.996Z,0.55
2023-01-29T22:09:49.730Z,0.98
2023-01-29T22:12:16.490Z,0.59
2023-01-29T22:14:43.111Z,0.36
2023-01-29T22:17:09.744Z,1.05
2023-01-29T22:19:36.616Z,0.19
2023-01-29T22:22:03.261Z,0.70
2023-01-29T22:24:29.865Z,0.85
2023-01-29T22:26:56.519Z,0.57
2023-01-29T22:29:23.207Z,0.83
2023-01-29T22:31:49.813Z,1.04
2023-01-29T22:34:16.404Z,0.64
2023-01-29T22:36:43.128Z,0.98
2023-01-29T22:39:10.311Z,1.50
2023-01-29T22:41:36.918Z,1.60
2023-01-29T22:44:03.595Z,1.55
2023-01-29T22:46:30.841Z,1.67
2023-01-29T22:48:57.463Z,1.40
2023-01-29T22:51:24.188Z,1.41
2023-01-29T22:53:55.633Z,1.83
2023-01-29T22:56:25.617Z,1.57
2023-01-29T22:58:54.043Z,1.28
2023-01-29T23:01:23.810Z,1.78
2023-01-29T23:03:50.661Z,2.14
2023-01-29T23:06:18.245Z,2.14
2023-01-29T23:08:45.123Z,1.88
2023-01-29T23:11:15.910Z,2.22
2023-01-29T23:13:48.711Z,2.06
2023-01-29T23:16:17.744Z,2.49
2023-01-29T23:18:48.436Z,2.51
2023-01-29T23:21:15.049Z,1.96
2023-01-29T23:23:44.072Z,2.52
2023-01-29T23:26:12.385Z,2.36
2023-01-29T23:28:39.047Z,2.64
2023-01-29T23:31:05.829Z,2.36
2023-01-29T23:33:32.501Z,2.47
2023-01-29T23:35:59.268Z,2.48
2023-01-29T23:38:26.009Z,2.62
2023-01-29T23:40:52.624Z,2.24
2023-01-29T23:43:20.378Z,2.51
2023-01-29T23:45:46.991Z,2.39
2023-01-29T23:48:13.600Z,2.30
2023-01-29T23:50:40.202Z,2.60
2023-01-29T23:53:06.808Z,2.88
2023-01-29T23:55:33.494Z,1.92
2023-01-29T23:58:00.134Z,2.39
